createdAt,value
2023-05-05T00:01:26.526Z,69.3
2023-05-05T00:11:25.960Z,70.6
2023-05-05T00:21:25.992Z,69.1
2023-05-05T00:31:25.912Z,70.3
2023-05-05T00:41:25.853Z,71.3
2023-05-05T00:51:26.437Z,71.5
2023-05-05T01:01:25.721Z,73.3
2023-05-05T01:11:25.818Z,72.6
2023-05-05T01:21:25.683Z,73.3
2023-05-05T01:31:25.662Z,74.3
2023-05-05T01:41:25.743Z,73.5
2023-05-05T01:51:25.778Z,73.6
2023-05-05T02:01:25.597Z,76.1
2023-05-05T02:11:25.685Z,74.6
2023-05-05T02:21:25.999Z,74.2
2023-05-05T02:31:25.936Z,74.4
2023-05-05T02:41:25.620Z,73.9
2023-05-05T02:51:25.928Z,74.5
2023-05-05T03:01:25.688Z,76.1
2023-05-05T03:11:25.715Z,77.2
2023-05-05T03:21:25.809Z,78.4
2023-05-05T03:31:25.626Z,79.1
2023-05-05T03:41:25.584Z,79.8
2023-05-05T03:51:25.646Z,80.8
2023-05-05T04:01:25.665Z,81.4
2023-05-05T04:11:25.714Z,81.7
2023-05-05T04:21:25.832Z,81.8
2023-05-05T04:31:25.775Z,83.1
2023-05-05T04:41:26.817Z,82.8
2023-05-05T04:51:26.049Z,81.6
2023-05-05T05:01:26.160Z,80.4
2023-05-05T05:11:25.988Z,79.2
2023-05-05T05:21:25.809Z,79.4
2023-05-05T05:31:25.923Z,78.4
2023-05-05T05:41:25.695Z,77.7
2023-05-05T05:51:26.148Z,77.6
2023-05-05T06:01:25.829Z,76.6
2023-05-05T06:11:25.670Z,77.0
2023-05-05T06:21:26.030Z,76.4
2023-05-05T06:31:25.730Z,76.0
2023-05-05T06:41:25.948Z,73.5
2023-05-05T06:51:25.811Z,73.1
2023-05-05T07:01:25.798Z,71.6
2023-05-05T07:11:25.748Z,69.5
2023-05-05T07:21:25.684Z,68.8
2023-05-05T07:31:26.068Z,67.3
2023-05-05T07:41:25.786Z,67.2
2023-05-05T07:51:26.005Z,66.6
2023-05-05T08:01:25.900Z,65.6
2023-05-05T08:11:26.819Z,64.7
2023-05-05T08:21:26.277Z,64.9
2023-05-05T08:31:25.761Z,62.1
2023-05-05T08:41:25.711Z,61.9
2023-05-05T08:51:25.765Z,60.3
2023-05-05T09:01:25.889Z,60.4
2023-05-05T09:11:26.057Z,58.2
2023-05-05T09:21:25.741Z,58.3
2023-05-05T09:31:27.280Z,55.2
2023-05-05T09:41:25.810Z,53.5
2023-05-05T09:51:25.739Z,55.4
2023-05-05T10:01:25.727Z,57.3
2023-05-05T10:11:25.786Z,58.8
2023-05-05T10:21:26.007Z,60.1
2023-05-05T10:31:26.863Z,58.7
2023-05-05T10:41:26.078Z,56.0
2023-05-05T10:51:35.914Z,56.2
2023-05-05T11:01:25.778Z,57.1
2023-05-05T11:11:25.993Z,59.3
2023-05-05T11:21:26.716Z,62.7
2023-05-05T11:31:25.846Z,68.1
2023-05-05T11:41:26.088Z,69.3
2023-05-05T11:51:26.100Z,66.6
2023-05-05T12:01:26.439Z,61.2
2023-05-05T12:11:25.987Z,69.4
2023-05-05T12:21:25.804Z,81.0
2023-05-05T12:31:25.850Z,85.0
2023-05-05T12:41:25.905Z,89.3
2023-05-05T12:51:26.150Z,89.8
2023-05-05T13:01:25.776Z,92.0
2023-05-05T13:11:25.982Z,93.2
2023-05-05T13:21:26.258Z,93.6
2023-05-05T13:31:25.901Z,93.3
2023-05-05T13:41:25.865Z,93.2
2023-05-05T13:51:26.682Z,93.6
2023-05-05T14:01:25.916Z,93.8
2023-05-05T14:11:26.036Z,93.8
2023-05-05T14:21:26.101Z,94.5
2023-05-05T14:31:26.012Z,94.7
2023-05-05T14:41:25.858Z,94.3
2023-05-05T14:51:25.904Z,92.1
2023-05-05T15:01:26.246Z,91.6
2023-05-05T15:11:26.174Z,91.2
2023-05-05T15:21:25.908Z,90.5
2023-05-05T15:31:26.037Z,92.0
2023-05-05T15:41:26.081Z,87.1
2023-05-05T15:51:26.731Z,87.2
2023-05-05T16:01:25.933Z,84.4
2023-05-05T16:11:25.911Z,85.7
2023-05-05T16:21:25.856Z,81.1
2023-05-05T16:31:26.018Z,85.8
2023-05-05T16:41:26.186Z,80.4
2023-05-05T16:51:26.476Z,80.9
2023-05-05T17:01:25.963Z,81.5
2023-05-05T17:11:25.905Z,84.3
2023-05-05T17:21:25.930Z,84.5
2023-05-05T17:31:26.097Z,81.4
2023-05-05T17:41:25.930Z,83.9
2023-05-05T17:51:25.915Z,83.9
2023-05-05T18:01:25.904Z,84.6
2023-05-05T18:11:25.914Z,83.2
2023-05-05T18:21:26.617Z,87.5
2023-05-05T18:31:26.009Z,88.0
2023-05-05T18:41:26.145Z,89.2
2023-05-05T18:51:26.410Z,89.1
2023-05-05T19:01:26.303Z,90.6
2023-05-05T19:11:26.252Z,91.3
2023-05-05T19:21:26.197Z,92.0
2023-05-05T19:31:26.607Z,92.6
2023-05-05T19:41:26.717Z,93.3
2023-05-05T19:51:26.230Z,94.0
2023-05-05T20:01:26.324Z,94.5
2023-05-05T20:11:26.344Z,95.0
2023-05-05T20:21:26.122Z,95.6
2023-05-05T20:31:26.581Z,96.3
2023-05-05T20:41:26.073Z,96.8
2023-05-05T20:51:26.839Z,96.9
2023-05-05T21:01:26.388Z,97.1
2023-05-05T21:11:26.433Z,96.6
2023-05-05T21:21:26.160Z,96.1
2023-05-05T21:31:26.391Z,95.7
2023-05-05T21:41:26.127Z,95.8
2023-05-05T21:51:26.282Z,95.7
2023-05-05T22:01:26.171Z,95.9
2023-05-05T22:11:26.516Z,95.9
2023-05-05T22:21:26.266Z,96.2
2023-05-05T22:31:26.306Z,96.5
2023-05-05T22:41:26.289Z,96.7
2023-05-05T22:51:27.096Z,96.6
2023-05-05T23:01:28.791Z,96.9
2023-05-05T23:11:29.237Z,97.0
2023-05-05T23:21:28.309Z,97.3
2023-05-05T23:31:28.379Z,97.7
2023-05-05T23:41:28.005Z,97.8
2023-05-05T23:51:31.883Z,97.9
